Main page
METAR-TAF:

METAR-TAF

Airports :

Mécheria Airport

Mécheria, Algeria

latitude: 34-56N, longitude: 000-26W, elevation: 1149 m

Current weather observation

The report was made 55 minutes ago, at 12:00 UTC
Wind 12 kt from the North/Northeast
Temperature 28°C
Humidity 30%
Pressure 1023 hPa
Visibility 10 km or more
no clouds below 1500 m and no cumulonimbus

METAR: DAAY 211200Z 03012KT CAVOK 28/09 Q1023

Time: 13:55 (12:55 UTC)

Forecast

The report was made 1 hour and 55 minutes ago, at 11:00 UTC
Forecast valid from 21 at 12 UTC to 21 at 21 UTC
Wind 10 kt from the North/Northeast
Visibility 10 km or more
no clouds below 1500 m and no cumulonimbus
Probability 30% :
Temporary
from 21 at 16 UTC to 21 at 20 UTC
Few clouds at a height of 2600 ft, Cumulonimbus.
Scattered clouds at a height of 3000 ft

TAF: DAAY 211100Z 2112/2121 02010KT CAVOK PROB30 TEMPO 2116/2120 FEW026CB SCT030

Weather observations and forecasts of more than 4000 airports (METAR and TAF reports).

The available stations are represented by yellow and red dots on the map.

Hover mouse over dot to see the name of the station.

Then click to see weather observations and forecasts.

To change the map : click on the green buttons with a black cross to zoom in, on the green button with a dash to zoom out, or on the green arrows for adjacent maps.


METAR-TAF: